Time;durP1;ratioP1;P1;durP2;ratioP2;P2;SDS_P1;SDS_P2;PMS_P1;PMS_P2;Temp;Humidity;BMP_temperature;BMP_pressure;BME280_temperature;BME280_humidity;BME280_pressure;Samples;Min_cycle;Max_cycle;Signal;HPM_P1;HPM_P2
2023/06/02 00:02:17;;;;;;;;;0.00;0.00;;;;;-146.67;30.42;74557.81;5023071;28;63079;-77
2023/06/02 00:04:44;;;;;;;;;0.00;0.00;;;;;-146.67;30.44;74553.81;5023887;28;62138;-78
2023/06/02 00:07:11;;;;;;;;;0.00;0.00;;;;;-146.67;30.43;74557.81;5023424;28;61765;-78
2023/06/02 00:09:39;;;;;;;;;0.00;0.00;;;;;-146.67;30.52;74559.81;5024153;28;61881;-77
2023/06/02 00:12:05;;;;;;;;;0.00;0.00;;;;;-146.67;30.57;74561.81;5023103;28;62991;-78
2023/06/02 00:14:32;;;;;;;;;0.00;0.00;;;;;-146.67;30.57;74557.81;5005856;28;62035;-78
2023/06/02 00:17:00;;;;;;;;;0.00;0.00;;;;;-146.67;30.47;74559.81;5005282;28;62395;-78
2023/06/02 00:19:30;;;;;;;;;0.00;0.00;;;;;-146.67;30.77;74563.78;5023615;28;62197;-78
2023/06/02 00:21:57;;;;;;;;;0.00;0.00;;;;;-146.67;30.18;74575.78;5023209;28;62880;-79
2023/06/02 00:24:23;;;;;;;;;0.00;0.00;;;;;-146.67;30.50;74579.78;5023295;28;62109;-78
2023/06/02 00:26:48;;;;;;;;;0.00;0.00;;;;;-146.67;30.73;74579.78;5023317;28;61954;-78
2023/06/02 00:29:14;;;;;;;;;0.00;0.00;;;;;-146.67;30.58;74583.75;5005456;28;62259;-78
2023/06/02 00:31:39;;;;;;;;;0.00;0.00;;;;;-146.67;30.38;74607.72;5022666;28;63237;-78
2023/06/02 00:34:05;;;;;;;;;0.00;0.00;;;;;-146.67;30.94;74619.69;5005331;28;62078;-77
2023/06/02 00:36:30;;;;;;;;;0.00;0.00;;;;;-146.67;30.66;74625.69;5005583;28;61825;-78
2023/06/02 00:38:55;;;;;;;;;0.00;0.00;;;;;-146.67;31.02;74631.69;5023461;28;61982;-78
2023/06/02 00:41:21;;;;;;;;;0.00;0.00;;;;;-146.67;30.71;74631.69;5022308;28;62302;-78
2023/06/02 00:43:46;;;;;;;;;0.00;0.00;;;;;-146.67;31.06;74635.66;5023365;28;62251;-78
2023/06/02 00:46:11;;;;;;;;;0.00;0.00;;;;;-146.67;31.04;74629.69;5023275;28;62371;-78
2023/06/02 00:48:37;;;;;;;;;0.00;0.00;;;;;-146.67;30.96;74629.69;5022145;28;61714;-78
2023/06/02 00:51:04;;;;;;;;;0.00;0.00;;;;;-146.67;30.77;74627.69;5022726;28;61799;-78
2023/06/02 00:53:31;;;;;;;;;0.00;0.00;;;;;-146.67;30.81;74639.66;5023190;28;62463;-78
2023/06/02 00:55:58;;;;;;;;;0.00;0.00;;;;;-146.67;31.09;74645.66;5023304;28;61916;-77
2023/06/02 00:58:23;;;;;;;;;0.00;0.00;;;;;-146.67;31.10;74669.63;5005281;28;61808;-78
2023/06/02 01:00:49;;;;;;;;;0.00;0.00;;;;;-146.67;31.05;74677.59;5022453;28;62784;-78
2023/06/02 01:03:15;;;;;;;;;0.00;0.00;;;;;-146.67;31.32;74677.59;5021551;28;62297;-78
2023/06/02 01:05:43;;;;;;;;;0.00;0.00;;;;;-146.67;31.03;74673.59;5021883;28;61824;-78
2023/06/02 01:08:11;;;;;;;;;0.00;0.00;;;;;-146.67;31.29;74679.59;5005130;28;61942;-78
2023/06/02 01:10:37;;;;;;;;;5.25;4.25;;;;;-146.67;31.45;74671.59;5004163;28;64735;-77
2023/06/02 01:13:03;;;;;;;;;0.00;0.00;;;;;-146.67;31.33;74667.63;5022594;28;61995;-78
2023/06/02 01:15:29;;;;;;;;;0.00;0.00;;;;;-146.67;31.12;74655.63;5004621;28;62017;-78
2023/06/02 01:17:55;;;;;;;;;0.00;0.00;;;;;-146.67;31.31;74661.63;5022401;28;62140;-78
2023/06/02 01:20:21;;;;;;;;;13.25;11.00;;;;;-146.67;31.20;74665.63;5021562;28;62781;-77
2023/06/02 01:23:01;;;;;;;;;6.75;6.00;;;;;-146.67;31.26;74669.63;5022507;28;61716;-76
2023/06/02 01:25:27;;;;;;;;;0.00;0.00;;;;;-146.67;31.07;74665.63;5004591;28;61891;-78
2023/06/02 01:27:57;;;;;;;;;0.00;0.00;;;;;-146.67;31.03;74657.63;5004451;28;62221;-78
2023/06/02 01:30:24;;;;;;;;;0.67;0.67;;;;;-146.67;31.11;74667.63;5022069;28;61963;-79
2023/06/02 01:33:15;;;;;;;;;7.75;6.50;;;;;-146.67;30.94;74687.56;5022372;28;62111;-78
2023/06/02 01:35:45;;;;;;;;;0.00;0.00;;;;;-146.67;31.47;74691.56;5002331;28;61965;-78
2023/06/02 01:38:12;;;;;;;;;0.00;0.00;;;;;-146.67;31.05;74679.59;5002680;28;61741;-78
2023/06/02 01:40:39;;;;;;;;;0.00;0.00;;;;;-146.67;31.30;74675.59;5018449;28;61781;-78
2023/06/02 01:43:06;;;;;;;;;0.00;0.00;;;;;-146.67;31.28;74677.59;5022337;28;61736;-78
2023/06/02 01:45:33;;;;;;;;;14.25;13.00;;;;;-146.67;31.62;74685.59;5004250;28;62017;-78
2023/06/02 01:48:06;;;;;;;;;0.00;0.00;;;;;-146.67;31.44;74689.56;5021846;28;61670;-78
2023/06/02 01:50:35;;;;;;;;;0.00;0.00;;;;;-146.67;31.08;74701.56;5021587;28;61851;-78
2023/06/02 01:53:00;;;;;;;;;0.00;0.00;;;;;-146.67;31.37;74697.56;5003951;28;61961;-78
2023/06/02 01:55:26;;;;;;;;;0.00;0.00;;;;;-146.67;31.03;74695.56;5004375;28;61773;-78
2023/06/02 01:57:51;;;;;;;;;0.00;0.00;;;;;-146.67;31.53;74719.53;5022281;28;61849;-78
2023/06/02 02:00:18;;;;;;;;;0.00;0.00;;;;;-146.67;31.27;74717.53;5003741;28;64741;-78
2023/06/02 02:02:44;;;;;;;;;0.00;0.00;;;;;-146.67;31.39;74707.53;5004281;28;61835;-78
2023/06/02 02:05:10;;;;;;;;;13.50;11.75;;;;;-146.67;31.50;74717.53;5021671;28;61960;-78
2023/06/02 02:07:37;;;;;;;;;0.00;0.00;;;;;-146.67;31.51;74707.53;5004138;28;61841;-78
2023/06/02 02:10:02;;;;;;;;;0.00;0.00;;;;;-146.67;31.16;74703.56;5021524;28;62892;-78
2023/06/02 02:12:28;;;;;;;;;0.00;0.00;;;;;-146.67;31.42;74721.53;5004215;28;61930;-78
2023/06/02 02:14:56;;;;;;;;;13.00;12.50;;;;;-146.67;31.39;74715.53;5021749;28;61746;-78
2023/06/02 02:17:25;;;;;;;;;0.00;0.00;;;;;-146.67;31.22;74711.53;5024188;28;62004;-78
2023/06/02 02:19:51;;;;;;;;;0.00;0.00;;;;;-146.67;31.27;74705.53;5024553;28;61832;-78
2023/06/02 02:22:17;;;;;;;;;0.00;0.00;;;;;-146.67;31.28;74709.53;5007365;28;62095;-77
2023/06/02 02:24:42;;;;;;;;;12.00;11.00;;;;;-146.67;31.37;74715.53;5007395;28;61852;-77
2023/06/02 02:27:08;;;;;;;;;0.00;0.00;;;;;-146.67;31.16;74703.56;5025317;28;62025;-78
2023/06/02 02:29:36;;;;;;;;;12.75;10.25;;;;;-146.67;31.21;74709.53;5006511;28;63413;-77
2023/06/02 02:32:01;;;;;;;;;0.00;0.00;;;;;-146.67;31.17;74729.50;5025164;28;61701;-78
2023/06/02 02:34:28;;;;;;;;;7.00;5.25;;;;;-146.67;31.67;74775.44;5024890;28;61997;-77
2023/06/02 02:36:58;;;;;;;;;0.00;0.00;;;;;-146.67;31.54;74791.41;5007256;28;61805;-78
2023/06/02 02:39:24;;;;;;;;;13.00;11.00;;;;;-146.67;32.02;74811.38;5023929;28;62890;-77
2023/06/02 02:41:49;;;;;;;;;0.00;0.00;;;;;-146.67;31.96;74815.38;5007246;28;61876;-78
2023/06/02 02:44:14;;;;;;;;;0.00;0.00;;;;;-146.67;31.90;74815.38;5006904;28;61736;-77
2023/06/02 02:46:40;;;;;;;;;14.50;11.00;;;;;-146.67;32.13;74823.34;5007259;28;62130;-77
2023/06/02 02:49:06;;;;;;;;;0.00;0.00;;;;;-146.67;31.93;74817.34;5023436;28;62105;-77
2023/06/02 02:51:32;;;;;;;;;0.00;0.00;;;;;-146.67;31.59;74825.34;5024853;28;61910;-78
2023/06/02 02:53:57;;;;;;;;;0.00;0.00;;;;;-146.67;31.80;74827.34;5007164;28;61938;-77
2023/06/02 02:56:23;;;;;;;;;0.00;0.00;;;;;-146.67;31.68;74819.34;5007245;28;62225;-77
2023/06/02 02:58:48;;;;;;;;;13.75;12.25;;;;;-146.67;31.93;74831.34;5022746;28;63731;-77
2023/06/02 03:01:16;;;;;;;;;14.00;11.50;;;;;-146.67;32.18;74855.28;5024373;28;62077;-78
2023/06/02 03:03:41;;;;;;;;;17.50;14.00;;;;;-146.67;32.30;74875.25;5024453;28;61851;-77
2023/06/02 03:06:07;;;;;;;;;0.00;0.00;;;;;-146.67;32.01;74877.25;4997775;28;62167;-78
2023/06/02 03:08:33;;;;;;;;;14.75;12.25;;;;;-146.67;32.52;74883.25;4986037;28;64458;-78
2023/06/02 03:10:58;;;;;;;;;11.00;8.75;;;;;-146.67;32.19;74899.22;5004559;28;61762;-78
2023/06/02 03:13:23;;;;;;;;;17.75;13.50;;;;;-146.67;32.83;74923.19;5004414;28;61748;-77
2023/06/02 03:15:50;;;;;;;;;0.00;0.00;;;;;-146.67;32.53;74915.19;5003512;28;62050;-77
2023/06/02 03:18:16;;;;;;;;;0.00;0.00;;;;;-146.67;32.36;74913.19;5023087;28;62154;-77
2023/06/02 03:20:42;;;;;;;;;0.00;0.00;;;;;-146.67;32.33;74909.19;5002629;28;62005;-77
2023/06/02 03:23:09;;;;;;;;;9.50;7.00;;;;;-146.67;32.08;74915.19;5004688;28;61922;-77
2023/06/02 03:25:35;;;;;;;;;19.25;12.00;;;;;-146.67;32.61;74925.19;5003073;28;62191;-78
2023/06/02 03:28:00;;;;;;;;;0.00;0.00;;;;;-146.67;32.33;74927.16;5002130;28;63977;-77
2023/06/02 03:30:26;;;;;;;;;8.00;7.00;;;;;-146.67;32.60;74935.16;5004367;28;61800;-77
2023/06/02 03:32:52;;;;;;;;;10.00;5.50;;;;;-146.67;32.61;74935.16;5004849;28;61837;-77
2023/06/02 03:35:17;;;;;;;;;15.25;12.50;;;;;-146.67;32.56;74951.13;5003947;28;62067;-77
2023/06/02 03:37:43;;;;;;;;;18.50;15.25;;;;;-146.67;32.83;74947.13;5003492;28;62033;-78
2023/06/02 03:40:09;;;;;;;;;8.00;8.00;;;;;-146.67;32.46;74957.13;5000694;28;62044;-77
2023/06/02 03:42:35;;;;;;;;;8.75;7.75;;;;;-146.67;32.80;74955.13;5004498;28;61966;-77
2023/06/02 03:45:00;;;;;;;;;14.00;13.00;;;;;-146.67;32.50;74957.13;5004273;28;61823;-77
2023/06/02 03:47:25;;;;;;;;;13.25;9.25;;;;;-146.67;32.80;74953.13;5002470;28;62908;-77
2023/06/02 03:49:51;;;;;;;;;0.00;0.00;;;;;-146.67;32.30;74941.16;5002416;28;62055;-78
2023/06/02 03:52:16;;;;;;;;;0.00;0.00;;;;;-146.67;32.16;74941.16;5003077;28;61820;-77
2023/06/02 03:54:42;;;;;;;;;20.50;14.75;;;;;-146.67;32.55;74951.13;5002750;28;61848;-77
2023/06/02 03:57:07;;;;;;;;;12.75;11.75;;;;;-146.67;32.45;74955.13;5003142;28;62741;-77
2023/06/02 03:59:33;;;;;;;;;0.00;0.00;;;;;-146.67;32.41;74947.13;5002643;28;61884;-77
2023/06/02 04:01:58;;;;;;;;;8.00;7.25;;;;;-146.67;32.57;74951.13;5004419;28;61773;-77
2023/06/02 04:04:24;;;;;;;;;0.00;0.00;;;;;-146.67;32.37;74947.13;5003881;28;61961;-77
2023/06/02 04:06:50;;;;;;;;;15.50;12.25;;;;;-146.67;32.44;74961.13;5002935;28;61923;-77
2023/06/02 04:09:16;;;;;;;;;15.75;14.00;;;;;-146.67;32.90;74953.13;5003882;28;61888;-77
2023/06/02 04:11:41;;;;;;;;;17.50;16.00;;;;;-146.67;32.51;74941.16;5003608;28;62049;-77
2023/06/02 04:14:06;;;;;;;;;16.50;14.25;;;;;-146.67;32.16;74939.16;5003880;28;61840;-77
2023/06/02 04:16:32;;;;;;;;;14.25;14.25;;;;;-146.67;32.15;74927.16;5001831;28;63824;-77
2023/06/02 04:18:57;;;;;;;;;13.25;11.25;;;;;-146.67;32.36;74935.16;5000716;28;62256;-78
2023/06/02 04:21:23;;;;;;;;;15.50;14.75;;;;;-146.67;32.41;74937.16;5002188;28;62003;-78
2023/06/02 04:23:48;;;;;;;;;13.75;11.00;;;;;-146.67;32.32;74929.16;5003511;28;62507;-78
2023/06/02 04:26:14;;;;;;;;;0.00;0.00;;;;;-146.67;32.15;74927.16;5002021;28;64587;-77
2023/06/02 04:28:40;;;;;;;;;13.25;10.00;;;;;-146.67;32.18;74913.19;5003366;28;61753;-78
2023/06/02 04:31:05;;;;;;;;;15.00;11.50;;;;;-146.67;31.70;74911.19;5003588;28;61985;-78
2023/06/02 04:33:31;;;;;;;;;18.75;17.00;;;;;-146.67;31.88;74915.19;5001591;28;61858;-77
2023/06/02 04:35:57;;;;;;;;;18.25;15.25;;;;;-146.67;32.15;74925.19;5001323;28;63607;-78
2023/06/02 04:38:23;;;;;;;;;23.00;18.00;;;;;-146.67;31.85;74919.19;5003192;28;61945;-78
2023/06/02 04:40:48;;;;;;;;;23.50;16.50;;;;;-146.67;32.07;74909.19;5001854;28;62003;-78
2023/06/02 04:43:14;;;;;;;;;15.50;15.00;;;;;-146.67;32.19;74907.22;5002095;28;61887;-78
2023/06/02 04:45:43;;;;;;;;;13.75;11.75;;;;;-146.67;32.03;74899.22;5002486;28;63610;-78
2023/06/02 04:48:09;;;;;;;;;0.00;0.00;;;;;-146.67;31.60;74897.22;5002079;28;62198;-78
2023/06/02 04:50:35;;;;;;;;;18.50;17.50;;;;;-146.67;31.93;74913.19;5002897;28;61770;-78
2023/06/02 04:53:00;;;;;;;;;18.00;15.50;;;;;-146.67;31.83;74907.22;5003214;28;61697;-77
2023/06/02 04:55:26;;;;;;;;;25.00;16.00;;;;;-146.67;31.65;74911.19;5002505;28;63270;-78
2023/06/02 04:57:51;;;;;;;;;1.00;1.00;;;;;-146.67;31.37;74907.22;5002956;28;61748;-77
2023/06/02 05:00:17;;;;;;;;;0.00;0.00;;;;;-146.67;31.31;74891.22;5002015;28;61738;-78
2023/06/02 05:02:42;;;;;;;;;21.25;18.75;;;;;-146.67;31.54;74889.22;5001376;28;61888;-78
2023/06/02 05:05:08;;;;;;;;;14.00;10.25;;;;;-146.67;31.35;74893.22;5000787;28;64797;-77
2023/06/02 05:07:33;;;;;;;;;15.25;14.25;;;;;-146.67;30.94;74857.28;5001526;28;62050;-78
2023/06/02 05:09:59;;;;;;;;;22.25;21.50;;;;;-146.67;30.66;74845.31;5002690;28;61811;-78
2023/06/02 05:12:25;;;;;;;;;0.00;0.00;;;;;-146.67;30.95;74833.31;5001880;28;62190;-77
2023/06/02 05:14:51;;;;;;;;;0.00;0.00;;;;;-146.67;30.98;74833.31;5017657;28;63510;-77
2023/06/02 05:17:24;;;;;;;;;27.00;21.75;;;;;-146.67;31.09;74843.31;5000499;28;61981;-77
2023/06/02 05:19:50;;;;;;;;;27.50;20.50;;;;;-146.67;30.83;74837.31;5002533;28;61931;-79
2023/06/02 05:22:16;;;;;;;;;24.25;20.50;;;;;-146.67;30.81;74863.28;5022691;28;61946;-80
2023/06/02 05:24:41;;;;;;;;;23.25;20.25;;;;;-146.67;31.05;74865.28;5004388;28;64797;-78
2023/06/02 05:27:10;;;;;;;;;15.25;11.50;;;;;-146.67;31.13;74873.25;5002908;28;61863;-80
2023/06/02 05:29:40;;;;;;;;;0.00;0.00;;;;;-146.67;30.81;74871.25;5008898;28;61917;-78
2023/06/02 05:32:08;;;;;;;;;23.50;20.25;;;;;-146.67;30.78;74859.28;5003971;28;62147;-79
2023/06/02 05:34:33;;;;;;;;;0.00;0.00;;;;;-146.67;30.75;74861.28;5003641;28;63793;-78
2023/06/02 05:37:00;;;;;;;;;13.00;12.50;;;;;-146.67;30.71;74857.28;5022608;28;61911;-78
2023/06/02 05:39:27;;;;;;;;;16.50;15.25;;;;;-146.67;30.72;74851.31;5020386;28;61998;-77
2023/06/02 05:41:54;;;;;;;;;26.50;23.25;;;;;-146.67;31.09;74861.28;5004386;28;62113;-78
2023/06/02 05:44:22;;;;;;;;;0.00;0.00;;;;;-146.67;30.83;74827.34;5021187;28;62118;-78
2023/06/02 05:46:48;;;;;;;;;21.25;20.50;;;;;-146.67;30.60;74805.38;5021109;28;61802;-79
2023/06/02 05:49:14;;;;;;;;;31.00;22.25;;;;;-146.67;30.59;74801.38;5019825;28;61949;-79
2023/06/02 05:51:40;;;;;;;;;19.00;15.00;;;;;-146.67;30.40;74793.41;5002913;28;61796;-78
2023/06/02 05:54:07;;;;;;;;;24.00;22.00;;;;;-146.67;30.29;74789.41;5017621;28;63096;-78
2023/06/02 05:56:32;;;;;;;;;0.00;0.00;;;;;-146.67;30.31;74771.44;4995619;28;61950;-77
2023/06/02 05:58:57;;;;;;;;;0.00;0.00;;;;;-146.67;30.23;74759.47;5021315;28;62229;-74
2023/06/02 06:01:23;;;;;;;;;14.00;11.75;;;;;-146.67;30.25;74787.41;5003561;28;62229;-78
2023/06/02 06:03:48;;;;;;;;;24.50;23.25;;;;;-146.67;30.43;74789.41;5001712;28;63752;-78
2023/06/02 06:06:13;;;;;;;;;19.25;12.75;;;;;-146.67;30.21;74787.41;5019766;28;61984;-78
2023/06/02 06:08:39;;;;;;;;;0.00;0.00;;;;;-146.67;30.32;74775.44;5018447;28;62251;-76
2023/06/02 06:11:05;;;;;;;;;30.50;21.50;;;;;-146.67;30.18;74763.44;5021740;28;61780;-75
2023/06/02 06:13:30;;;;;;;;;23.75;21.75;;;;;-146.67;30.25;74753.47;5002523;28;64050;-75
2023/06/02 06:15:56;;;;;;;;;17.25;13.25;;;;;-146.67;30.37;74735.50;5020859;28;61836;-75
2023/06/02 06:18:21;;;;;;;;;21.00;20.75;;;;;-146.67;30.05;74721.53;5020716;28;62608;-77
2023/06/02 06:20:47;;;;;;;;;17.75;12.50;;;;;-146.67;30.22;74723.50;5000456;28;63330;-77
2023/06/02 06:23:15;;;;;;;;;13.00;12.50;;;;;-146.67;29.87;74713.53;5020857;28;61882;-75
2023/06/02 06:25:40;;;;;;;;;0.00;0.00;;;;;-146.67;29.80;74691.56;4999898;28;62086;-78
2023/06/02 06:28:06;;;;;;;;;0.00;0.00;;;;;-146.67;29.38;74681.59;5021365;28;61917;-78
2023/06/02 06:30:31;;;;;;;;;0.00;0.00;;;;;-146.67;29.62;74667.63;5003713;28;61871;-77
2023/06/02 06:32:57;;;;;;;;;27.75;20.00;;;;;-146.67;29.37;74655.63;5020679;28;62779;-77
2023/06/02 06:35:23;;;;;;;;;0.00;0.00;;;;;-146.67;29.37;74649.66;5003340;28;62054;-78
2023/06/02 06:37:48;;;;;;;;;32.25;27.50;;;;;-146.67;29.46;74639.66;5003124;28;62061;-78
2023/06/02 06:40:13;;;;;;;;;0.00;0.00;;;;;-146.67;29.33;74639.66;5016428;28;61972;-81
2023/06/02 06:42:39;;;;;;;;;14.25;11.75;;;;;-146.67;29.11;74629.69;5001768;28;63928;-82
2023/06/02 06:45:06;;;;;;;;;0.00;0.00;;;;;-146.67;29.04;74601.72;5003533;28;62352;-79
2023/06/02 06:47:31;;;;;;;;;0.00;0.00;;;;;-146.67;29.11;74603.72;5020305;28;61999;-78
2023/06/02 06:49:57;;;;;;;;;0.00;0.00;;;;;-146.67;28.84;74579.78;5020259;28;62234;-79
2023/06/02 06:52:22;;;;;;;;;0.00;0.00;;;;;-146.67;28.72;74567.78;5017183;28;61833;-80
2023/06/02 06:54:47;;;;;;;;;24.75;23.75;;;;;-146.67;29.05;74563.78;5019155;28;61946;-80
2023/06/02 06:57:13;;;;;;;;;0.00;0.00;;;;;-146.67;28.80;74539.84;5002095;28;61860;-80
2023/06/02 06:59:44;;;;;;;;;0.00;0.00;;;;;-146.67;28.69;74485.94;5019881;28;61756;-81
2023/06/02 07:02:10;;;;;;;;;0.00;0.00;;;;;-146.67;28.45;74473.97;4999599;28;64023;-81
2023/06/02 07:04:35;;;;;;;;;0.00;0.00;;;;;-146.67;28.11;74499.91;5022284;28;63209;-81
2023/06/02 07:07:01;;;;;;;;;0.00;0.00;;;;;-146.67;28.21;74525.88;5006204;28;62245;-81
2023/06/02 07:09:26;;;;;;;;;0.00;0.00;;;;;-146.67;28.45;74547.81;5021185;28;62048;-81
2023/06/02 07:11:52;;;;;;;;;0.00;0.00;;;;;-146.67;28.64;74557.81;5023050;28;62022;-84
2023/06/02 07:14:17;;;;;;;;;0.00;0.00;;;;;-146.67;28.54;74567.78;5024520;28;61807;-81
2023/06/02 07:16:46;;;;;;;;;0.00;0.00;;;;;-146.67;28.73;74581.75;5024606;28;61934;-82
2023/06/02 07:19:12;;;;;;;;;0.00;0.00;;;;;-146.67;28.79;74597.75;5005986;28;61800;-83
2023/06/02 07:21:37;;;;;;;;;0.00;0.00;;;;;-146.67;28.76;74597.75;5023705;28;61900;-84
2023/06/02 07:24:03;;;;;;;;;0.00;0.00;;;;;-146.67;28.84;74599.72;5005544;28;62255;-84
2023/06/02 07:26:28;;;;;;;;;0.00;0.00;;;;;-146.67;28.81;74591.75;5023475;28;61850;-82
2023/06/02 07:28:53;;;;;;;;;0.00;0.00;;;;;-146.67;28.70;74579.78;5005814;28;61933;-82
2023/06/02 07:31:19;;;;;;;;;0.00;0.00;;;;;-146.67;28.41;74539.84;5023615;28;62852;-82
2023/06/02 07:33:45;;;;;;;;;0.00;0.00;;;;;-146.67;28.27;74523.88;5023916;28;61884;-80
2023/06/02 07:36:11;;;;;;;;;0.00;0.00;;;;;-146.67;28.05;74517.88;5024163;28;61720;-80
2023/06/02 07:38:36;;;;;;;;;0.00;0.00;;;;;-146.67;28.13;74525.88;5005872;28;62079;-83
2023/06/02 07:41:02;;;;;;;;;0.00;0.00;;;;;-146.67;28.07;74523.88;5019106;28;61890;-83
2023/06/02 07:43:27;;;;;;;;;0.00;0.00;;;;;-146.67;28.29;74551.81;5023775;28;61955;-82
2023/06/02 07:45:53;;;;;;;;;0.00;0.00;;;;;-146.67;28.44;74545.81;5023757;28;61786;-82
2023/06/02 07:48:18;;;;;;;;;0.00;0.00;;;;;-146.67;28.45;74547.81;5023351;28;61790;-83
2023/06/02 07:50:44;;;;;;;;;0.00;0.00;;;;;-146.67;28.31;74551.81;5022769;28;62148;-82
2023/06/02 07:53:09;;;;;;;;;0.00;0.00;;;;;-146.67;28.30;74567.78;5023732;28;61919;-83
2023/06/02 07:55:34;;;;;;;;;0.00;0.00;;;;;-146.67;28.42;74575.78;4985864;28;61907;-83
2023/06/02 07:58:00;;;;;;;;;17.75;15.50;;;;;-146.67;28.35;74593.75;5003654;28;61859;-83
2023/06/02 08:00:25;;;;;;;;;0.00;0.00;;;;;-146.67;28.55;74609.72;5019676;28;61887;-87
2023/06/02 08:02:51;;;;;;;;;0.00;0.00;;;;;-146.67;28.44;74615.72;5005947;28;62315;-85
2023/06/02 08:05:17;;;;;;;;;0.00;0.00;;;;;-146.67;28.48;74613.72;5005639;28;62128;-85
2023/06/02 08:07:43;;;;;;;;;0.00;0.00;;;;;-146.67;28.51;74597.75;5024134;28;61809;-85
2023/06/02 08:10:09;;;;;;;;;0.00;0.00;;;;;-146.67;28.43;74581.75;5022598;28;62977;-83
2023/06/02 08:12:35;;;;;;;;;0.00;0.00;;;;;-146.67;28.62;74569.78;5023778;28;62482;-84
2023/06/02 08:15:01;;;;;;;;;0.00;0.00;;;;;-146.67;28.55;74557.81;5023490;28;62160;-86
2023/06/02 08:17:29;;;;;;;;;0.00;0.00;;;;;-146.67;28.41;74557.81;5020922;28;61873;-83
2023/06/02 08:19:56;;;;;;;;;17.25;15.50;;;;;-146.67;28.42;74541.84;5021471;28;62128;-84
2023/06/02 08:22:22;;;;;;;;;9.00;9.00;;;;;-146.67;28.55;74569.78;5023007;28;62141;-84
2023/06/02 08:24:47;;;;;;;;;0.00;0.00;;;;;-146.67;28.63;74589.75;5023290;28;61915;-85
2023/06/02 08:27:14;;;;;;;;;0.00;0.00;;;;;-146.67;28.44;74577.78;5023671;28;61654;-84
2023/06/02 08:29:40;;;;;;;;;0.00;0.00;;;;;-146.67;28.48;74561.81;5022472;28;62083;-83
2023/06/02 08:32:06;;;;;;;;;0.00;0.00;;;;;-146.67;28.44;74551.81;5005046;28;62021;-88
2023/06/02 08:34:31;;;;;;;;;0.00;0.00;;;;;-146.67;28.22;74551.81;5005466;28;61941;-86
2023/06/02 08:37:00;;;;;;;;;0.00;0.00;;;;;-146.67;28.31;74561.81;5005727;28;62049;-85
2023/06/02 08:39:26;;;;;;;;;0.00;0.00;;;;;-146.67;28.27;74567.78;5000351;28;63749;-85
2023/06/02 08:41:53;;;;;;;;;2.00;2.00;;;;;-146.67;28.36;74577.78;5023505;28;62127;-84
2023/06/02 08:44:19;;;;;;;;;20.25;19.00;;;;;-146.67;28.67;74577.78;5021437;28;61997;-82
2023/06/02 08:46:51;;;;;;;;;0.00;0.00;;;;;-146.67;28.53;74573.78;5005602;28;62218;-82
2023/06/02 08:49:18;;;;;;;;;22.25;19.75;;;;;-146.67;28.70;74569.78;5021462;28;61944;-83
2023/06/02 08:51:47;;;;;;;;;0.00;0.00;;;;;-146.67;28.84;74561.81;5005048;28;62282;-83
2023/06/02 08:54:14;;;;;;;;;0.00;0.00;;;;;-146.67;28.50;74565.78;5004714;28;61823;-81
2023/06/02 08:56:41;;;;;;;;;0.00;0.00;;;;;-146.67;28.67;74565.78;5023503;28;61740;-81
2023/06/02 08:59:07;;;;;;;;;24.00;21.50;;;;;-146.67;28.66;74589.75;5020312;28;63785;-81
2023/06/02 09:01:33;;;;;;;;;12.50;11.00;;;;;-146.67;28.76;74583.75;5004235;28;61825;-82
2023/06/02 09:03:59;;;;;;;;;0.00;0.00;;;;;-146.67;28.75;74593.75;5022709;28;61952;-83
2023/06/02 09:06:26;;;;;;;;;10.75;6.00;;;;;-146.67;28.96;74631.69;5022946;28;62179;-82
2023/06/02 09:09:00;;;;;;;;;17.75;15.00;;;;;-146.67;29.12;74675.59;5002670;28;64709;-80
2023/06/02 09:11:27;;;;;;;;;23.75;19.50;;;;;-146.67;29.29;74673.59;5021441;28;62003;-79
2023/06/02 09:13:53;;;;;;;;;22.00;21.25;;;;;-146.67;29.41;74693.56;5022092;28;61860;-81
2023/06/02 09:16:20;;;;;;;;;0.00;0.00;;;;;-146.67;29.29;74695.56;4996236;28;62521;-81
2023/06/02 09:18:59;;;;;;;;;24.00;19.50;;;;;-146.67;29.29;74671.59;5000817;28;62043;-83
2023/06/02 09:21:32;;;;;;;;;0.00;0.00;;;;;-146.67;29.21;74635.66;5002269;28;62225;-83
2023/06/02 09:24:01;;;;;;;;;23.75;20.25;;;;;-146.67;29.08;74629.69;5002212;28;61931;-82
2023/06/02 09:26:30;;;;;;;;;0.00;0.00;;;;;-146.67;28.90;74613.72;5018781;28;61942;-83
2023/06/02 09:29:13;;;;;;;;;0.00;0.00;;;;;-146.67;28.84;74613.72;5021746;28;63394;-83
2023/06/02 09:31:52;;;;;;;;;22.25;18.25;;;;;-146.67;29.01;74611.72;5021021;28;61916;-84
2023/06/02 09:34:20;;;;;;;;;20.50;16.00;;;;;-146.67;28.64;74607.72;5021806;28;61974;-84
2023/06/02 09:36:53;;;;;;;;;0.00;0.00;;;;;-146.67;29.03;74613.72;5023248;28;61959;-84
2023/06/02 09:39:33;;;;;;;;;0.00;0.00;;;;;-146.67;29.11;74585.75;5021552;28;62119;-84
2023/06/02 09:41:59;;;;;;;;;0.00;0.00;;;;;-146.67;28.67;74575.78;5022029;28;61974;-83
2023/06/02 09:44:26;;;;;;;;;0.00;0.00;;;;;-146.67;28.79;74577.78;5022165;28;62148;-85
2023/06/02 09:46:52;;;;;;;;;0.00;0.00;;;;;-146.67;28.70;74573.78;5022113;28;61716;-83
2023/06/02 09:49:18;;;;;;;;;0.00;0.00;;;;;-146.67;28.53;74565.78;5006103;28;64198;-84
2023/06/02 09:51:44;;;;;;;;;0.00;0.00;;;;;-146.67;28.77;74553.81;5021422;28;61840;-83
2023/06/02 09:54:10;;;;;;;;;0.00;0.00;;;;;-146.67;28.61;74521.88;5003887;28;62027;-83
2023/06/02 09:56:37;;;;;;;;;0.00;0.00;;;;;-146.67;28.72;74531.84;5022519;28;62118;-85
2023/06/02 09:59:06;;;;;;;;;0.00;0.00;;;;;-146.67;28.61;74543.84;5021206;28;63299;-85
2023/06/02 10:01:32;;;;;;;;;0.00;0.00;;;;;-146.67;28.98;74579.78;5004187;28;61936;-84
2023/06/02 10:03:58;;;;;;;;;0.00;0.00;;;;;-146.67;28.86;74559.81;5003714;28;62150;-82
2023/06/02 10:06:48;;;;;;;;;0.00;0.00;;;;;-146.67;28.74;74557.81;5003484;28;62102;-82
2023/06/02 10:09:19;;;;;;;;;0.00;0.00;;;;;-146.67;28.67;74597.75;5004348;28;64721;-83
2023/06/02 10:11:58;;;;;;;;;0.00;0.00;;;;;-146.67;28.89;74597.75;5021907;28;61928;-83
2023/06/02 10:14:51;;;;;;;;;21.50;16.25;;;;;-146.67;29.18;74587.75;5021689;28;62158;-80
2023/06/02 10:17:29;;;;;;;;;0.00;0.00;;;;;-146.67;28.93;74545.81;5021936;28;62010;-81
2023/06/02 10:19:57;;;;;;;;;18.00;18.00;;;;;-146.67;28.82;74579.78;5020038;28;62104;-81
2023/06/02 10:23:10;;;;;;;;;0.00;0.00;;;;;-146.67;28.87;74533.84;5021834;28;61769;-82
2023/06/02 10:26:15;;;;;;;;;0.67;0.67;;;;;-146.67;28.53;74555.81;4991927;28;62350;-82
2023/06/02 10:28:42;;;;;;;;;13.25;10.50;;;;;-146.67;28.65;74523.88;5002921;28;61754;-84
2023/06/02 10:31:09;;;;;;;;;0.00;0.00;;;;;-146.67;28.48;74487.94;5002047;28;61918;-82
2023/06/02 10:33:49;;;;;;;;;0.00;0.00;;;;;-146.67;28.19;74450.00;5000515;28;61980;-83
2023/06/02 10:36:17;;;;;;;;;15.50;14.25;;;;;-146.67;28.13;74440.00;5001416;28;61791;-82
2023/06/02 10:38:44;;;;;;;;;0.00;0.00;;;;;-146.67;27.76;74418.06;5016101;28;61853;-81
2023/06/02 10:41:10;;;;;;;;;0.00;0.00;;;;;-146.67;28.03;74392.09;5023655;28;63724;-81
2023/06/02 10:43:36;;;;;;;;;0.00;0.00;;;;;-146.67;27.70;74370.16;5024708;28;62199;-81
2023/06/02 10:46:21;;;;;;;;;0.00;0.00;;;;;-146.67;27.74;74356.16;5025450;28;61929;-81
2023/06/02 10:48:48;;;;;;;;;0.00;0.00;;;;;-146.67;27.40;74340.19;5025198;28;61879;-80
2023/06/02 10:51:14;;;;;;;;;0.00;0.00;;;;;-146.67;27.45;74346.19;5024839;28;62927;-81
2023/06/02 10:54:07;;;;;;;;;0.00;0.00;;;;;-146.67;27.47;74342.19;5024338;28;62097;-82
2023/06/02 10:56:40;;;;;;;;;0.00;0.00;;;;;-146.67;26.98;74322.22;5023171;28;62158;-83
2023/06/02 10:59:29;;;;;;;;;0.00;0.00;;;;;-146.67;27.41;74306.25;5021928;28;61847;-83
2023/06/02 11:01:58;;;;;;;;;0.00;0.00;;;;;-146.67;27.26;74280.31;5019667;28;61978;-80
2023/06/02 11:04:35;;;;;;;;;0.00;0.00;;;;;-146.67;26.90;74266.34;5020849;28;62103;-81
2023/06/02 11:07:18;;;;;;;;;0.00;0.00;;;;;-146.67;27.15;74242.38;5021098;28;62095;-81
2023/06/02 11:09:48;;;;;;;;;0.00;0.00;;;;;-146.67;27.12;74230.41;5003785;28;62015;-81
2023/06/02 11:12:15;;;;;;;;;0.00;0.00;;;;;-146.67;26.82;74202.44;5020821;28;62081;-81
2023/06/02 11:15:04;;;;;;;;;0.00;0.00;;;;;-146.67;26.53;74178.50;5004209;28;62025;-81